createdAt,value
2023-04-23T00:04:01.701Z,5.78
2023-04-23T00:09:04.660Z,5.95
2023-04-23T00:14:07.504Z,5.90
2023-04-23T00:19:11.066Z,5.50
2023-04-23T00:24:13.429Z,5.69
2023-04-23T00:29:15.807Z,5.85
2023-04-23T00:34:18.096Z,5.66
2023-04-23T00:39:20.588Z,5.61
2023-04-23T00:44:22.984Z,5.34
2023-04-23T00:49:25.741Z,4.93
2023-04-23T00:54:28.553Z,5.52
2023-04-23T00:59:32.357Z,5.68
2023-04-23T01:04:35.963Z,5.21
2023-04-23T01:09:38.374Z,5.20
2023-04-23T01:14:42.094Z,5.38
2023-04-23T01:19:44.768Z,5.05
2023-04-23T01:24:47.797Z,4.72
2023-04-23T01:29:50.262Z,5.29
2023-04-23T01:34:54.824Z,4.74
2023-04-23T01:39:57.336Z,5.65
2023-04-23T01:44:59.744Z,5.60
2023-04-23T01:50:02.148Z,5.38
2023-04-23T01:55:06.401Z,5.21
2023-04-23T02:00:11.631Z,5.73
2023-04-23T02:05:18.931Z,4.92
2023-04-23T02:10:21.587Z,5.77
2023-04-23T02:15:25.724Z,5.39
2023-04-23T02:20:28.875Z,5.78
2023-04-23T02:25:32.548Z,5.60
2023-04-23T02:30:35.926Z,4.80
2023-04-23T02:35:41.229Z,4.77
2023-04-23T02:40:44.145Z,5.80
2023-04-23T02:45:46.567Z,5.05
2023-04-23T02:50:49.374Z,5.45
2023-04-23T02:55:51.761Z,4.95
2023-04-23T03:00:54.635Z,6.03
2023-04-23T03:05:57.180Z,5.91
2023-04-23T03:10:59.645Z,6.14
2023-04-23T03:16:02.078Z,5.87
2023-04-23T03:21:04.590Z,4.26
2023-04-23T03:26:07.268Z,6.13
2023-04-23T03:31:09.765Z,5.96
2023-04-23T03:36:12.291Z,6.05
2023-04-23T03:41:14.690Z,6.47
2023-04-23T03:46:17.341Z,5.46
2023-04-23T03:51:20.994Z,5.54
2023-04-23T03:56:26.941Z,6.63
2023-04-23T04:02:08.191Z,6.69
2023-04-23T04:07:12.389Z,6.78
2023-04-23T04:12:14.743Z,6.42
2023-04-23T04:17:18.627Z,6.62
2023-04-23T04:22:21.056Z,6.88
2023-04-23T04:27:23.438Z,6.58
2023-04-23T04:32:25.849Z,7.08
2023-04-23T04:37:28.450Z,6.62
2023-04-23T04:42:31.410Z,7.10
2023-04-23T04:47:33.917Z,7.14
2023-04-23T04:52:36.862Z,7.72
2023-04-23T04:57:39.225Z,7.85
2023-04-23T05:02:41.724Z,7.61
2023-04-23T05:07:44.137Z,7.99
2023-04-23T05:12:47.025Z,8.20
2023-04-23T05:17:53.758Z,7.88
2023-04-23T05:22:56.472Z,8.42
2023-04-23T05:27:59.017Z,7.46
2023-04-23T05:33:01.405Z,8.00
2023-04-23T05:38:05.311Z,8.77
2023-04-23T05:43:07.950Z,8.58
2023-04-23T05:48:10.395Z,9.04
2023-04-23T05:53:13.064Z,8.91
2023-04-23T05:58:16.068Z,9.13
2023-04-23T06:03:18.745Z,8.45
2023-04-23T06:08:21.963Z,9.67
2023-04-23T06:13:26.048Z,9.83
2023-04-23T06:18:28.625Z,9.23
2023-04-23T06:23:31.650Z,9.75
2023-04-23T06:28:34.115Z,10.44
2023-04-23T06:33:59.709Z,10.54
2023-04-23T06:39:02.136Z,10.76
2023-04-23T06:44:04.631Z,10.99
2023-04-23T06:49:11.340Z,11.25
2023-04-23T06:54:13.627Z,11.81
2023-04-23T06:59:15.998Z,11.22
2023-04-23T07:04:22.325Z,12.50
2023-04-23T07:09:25.008Z,12.84
2023-04-23T07:14:27.429Z,13.39
2023-04-23T07:19:29.824Z,13.29
2023-04-23T07:24:32.183Z,13.86
2023-04-23T07:29:34.522Z,13.85
2023-04-23T07:34:38.069Z,13.67
2023-04-23T07:39:43.816Z,14.49
2023-04-23T07:44:49.461Z,15.12
2023-04-23T07:49:51.799Z,15.47
2023-04-23T07:54:54.344Z,15.76
2023-04-23T07:59:56.772Z,15.67
2023-04-23T08:04:59.275Z,14.73
2023-04-23T08:10:05.462Z,16.25
2023-04-23T08:15:08.646Z,15.98
2023-04-23T08:20:15.634Z,16.43
2023-04-23T08:25:18.044Z,16.81
2023-04-23T08:30:20.516Z,17.22
2023-04-23T08:35:23.847Z,17.18
2023-04-23T08:40:27.002Z,17.27
2023-04-23T08:45:30.522Z,17.25
2023-04-23T08:50:34.004Z,17.02
2023-04-23T08:55:37.028Z,17.19
2023-04-23T09:00:40.142Z,17.30
2023-04-23T09:05:42.796Z,17.44
2023-04-23T09:10:45.355Z,17.17
2023-04-23T09:15:47.822Z,16.27
2023-04-23T09:20:50.634Z,17.22
2023-04-23T09:25:53.080Z,16.48
2023-04-23T09:30:55.688Z,17.05
2023-04-23T09:35:58.122Z,17.13
2023-04-23T09:41:01.515Z,17.31
2023-04-23T09:46:03.956Z,17.32
2023-04-23T09:51:06.414Z,17.03
2023-04-23T09:56:11.962Z,17.54
2023-04-23T10:01:15.671Z,17.72
2023-04-23T10:06:36.863Z,17.72
2023-04-23T10:11:42.352Z,18.07
2023-04-23T10:16:49.263Z,18.32
2023-04-23T10:22:18.649Z,17.69
2023-04-23T10:27:33.474Z,18.01
2023-04-23T10:32:46.070Z,18.42
2023-04-23T10:37:48.942Z,18.17
2023-04-23T10:42:51.824Z,18.65
2023-04-23T10:47:57.502Z,18.47
2023-04-23T10:53:00.034Z,19.07
2023-04-23T10:58:05.061Z,18.91
2023-04-23T11:03:43.084Z,19.31
2023-04-23T11:08:54.651Z,19.13
2023-04-23T11:14:00.915Z,19.09
2023-04-23T11:19:05.454Z,18.92
2023-04-23T11:24:08.308Z,19.10
2023-04-23T11:29:14.606Z,18.99
2023-04-23T11:34:17.965Z,19.41
2023-04-23T11:39:21.662Z,18.80
2023-04-23T11:44:24.057Z,18.74
2023-04-23T11:49:26.533Z,19.25
2023-04-23T11:54:29.951Z,19.56
2023-04-23T11:59:32.327Z,19.55
2023-04-23T12:04:34.787Z,19.82
2023-04-23T12:09:38.749Z,19.36
2023-04-23T12:14:41.183Z,19.59
2023-04-23T12:19:45.268Z,19.32
2023-04-23T12:24:55.295Z,19.31
2023-04-23T12:30:01.585Z,19.76
2023-04-23T12:35:07.085Z,19.83
2023-04-23T12:40:10.523Z,19.61
2023-04-23T12:45:13.327Z,19.78
2023-04-23T12:50:15.961Z,19.64
2023-04-23T12:55:18.475Z,19.82
2023-04-23T13:00:21.125Z,19.96
2023-04-23T13:05:24.098Z,19.07
2023-04-23T13:10:26.662Z,19.72
2023-04-23T13:15:29.068Z,18.76
2023-04-23T13:20:31.607Z,19.64
2023-04-23T13:25:33.986Z,19.84
2023-04-23T13:30:36.340Z,19.81
2023-04-23T13:35:38.949Z,19.78
2023-04-23T13:40:42.295Z,18.21
2023-04-23T13:45:44.911Z,19.99
2023-04-23T13:50:47.424Z,19.65
2023-04-23T13:55:49.746Z,19.20
2023-04-23T14:00:53.233Z,19.65
2023-04-23T14:05:55.811Z,19.52
2023-04-23T14:10:58.235Z,19.43
2023-04-23T14:16:03.426Z,19.32
2023-04-23T14:21:07.117Z,19.24
2023-04-23T14:26:11.116Z,19.51
2023-04-23T14:31:13.675Z,19.47
2023-04-23T14:36:16.182Z,18.99
2023-04-23T14:41:18.578Z,19.13
2023-04-23T14:46:21.085Z,18.96
2023-04-23T14:51:23.983Z,18.84
2023-04-23T14:56:27.503Z,18.98
2023-04-23T15:01:30.791Z,18.93
2023-04-23T15:06:33.290Z,18.45
2023-04-23T15:11:35.849Z,18.22
2023-04-23T15:21:43.600Z,18.57
2023-04-23T15:26:46.964Z,18.48
2023-04-23T15:31:49.853Z,18.30
2023-04-23T15:36:52.181Z,17.70
2023-04-23T15:41:54.624Z,18.20
2023-04-23T15:46:57.040Z,17.85
2023-04-23T15:51:59.657Z,17.79
2023-04-23T15:57:03.080Z,17.78
2023-04-23T16:02:05.740Z,17.33
2023-04-23T16:07:08.357Z,17.51
2023-04-23T16:12:10.840Z,17.21
2023-04-23T16:17:13.392Z,17.41
2023-04-23T16:22:16.692Z,16.69
2023-04-23T16:27:19.073Z,16.95
2023-04-23T16:32:21.673Z,17.26
2023-04-23T16:37:24.066Z,16.85
2023-04-23T16:42:27.164Z,16.56
2023-04-23T16:47:31.464Z,16.75
2023-04-23T16:52:34.082Z,15.96
2023-04-23T16:57:37.225Z,16.07
2023-04-23T17:02:41.720Z,15.66
2023-04-23T17:07:44.445Z,15.97
2023-04-23T17:12:47.010Z,15.69
2023-04-23T17:17:49.920Z,15.17
2023-04-23T17:22:52.372Z,15.43
2023-04-23T17:27:54.994Z,15.39
2023-04-23T17:32:57.395Z,14.10
2023-04-23T17:37:59.743Z,15.04
2023-04-23T17:43:02.220Z,14.09
2023-04-23T17:48:05.621Z,14.29
2023-04-23T17:53:08.427Z,12.45
2023-04-23T17:58:10.869Z,11.64
2023-04-23T18:03:16.998Z,11.24
2023-04-23T18:08:21.750Z,13.46
2023-04-23T18:13:24.247Z,13.94
2023-04-23T18:18:26.723Z,11.64
2023-04-23T18:23:29.883Z,13.22
2023-04-23T18:28:37.750Z,12.70
2023-04-23T18:33:49.941Z,13.72
2023-04-23T18:38:54.538Z,13.54
2023-04-23T18:43:57.517Z,11.73
2023-04-23T18:49:38.841Z,13.40
2023-04-23T18:54:45.104Z,12.34
2023-04-23T18:59:49.046Z,12.19
2023-04-23T19:04:51.745Z,10.80
2023-04-23T19:09:54.199Z,11.75
2023-04-23T19:14:56.566Z,12.60
2023-04-23T19:19:58.962Z,12.16
2023-04-23T19:25:01.460Z,12.04
2023-04-23T19:30:07.693Z,12.50
2023-04-23T19:35:13.136Z,12.02
2023-04-23T19:40:15.661Z,12.13
2023-04-23T19:45:18.824Z,11.88
2023-04-23T19:50:21.460Z,11.49
2023-04-23T19:55:27.411Z,12.04
2023-04-23T20:00:31.002Z,11.54
2023-04-23T20:05:33.733Z,11.73
2023-04-23T20:10:36.175Z,11.53
2023-04-23T20:15:38.802Z,11.60
2023-04-23T20:20:42.349Z,11.19
2023-04-23T20:25:44.746Z,11.60
2023-04-23T20:30:49.597Z,11.02
2023-04-23T20:35:51.913Z,11.40
2023-04-23T20:40:54.392Z,10.57
2023-04-23T20:45:57.091Z,11.25
2023-04-23T20:50:59.889Z,10.41
2023-04-23T20:56:02.236Z,10.81
2023-04-23T21:01:06.818Z,10.62
2023-04-23T21:06:10.963Z,10.96
2023-04-23T21:11:18.015Z,10.63
2023-04-23T21:16:20.535Z,9.37
2023-04-23T21:21:27.394Z,10.57
2023-04-23T21:26:30.988Z,10.64
2023-04-23T21:31:47.024Z,10.56
2023-04-23T21:36:50.130Z,10.32
2023-04-23T21:41:52.583Z,10.02
2023-04-23T21:46:55.028Z,10.19
2023-04-23T21:51:57.622Z,9.76
2023-04-23T21:57:00.131Z,9.50
2023-04-23T22:02:02.567Z,9.75
2023-04-23T22:07:06.141Z,8.91
2023-04-23T22:12:09.164Z,9.94
2023-04-23T22:17:12.090Z,9.50
2023-04-23T22:22:14.424Z,9.69
2023-04-23T22:27:16.818Z,9.79
2023-04-23T22:32:19.180Z,8.86
2023-04-23T22:37:21.790Z,8.58
2023-04-23T22:42:24.540Z,7.86
2023-04-23T22:47:27.463Z,9.33
2023-04-23T22:52:30.233Z,9.41
2023-04-23T22:57:32.643Z,8.19
2023-04-23T23:02:35.140Z,9.24
2023-04-23T23:07:37.587Z,8.65
2023-04-23T23:12:39.877Z,8.63
2023-04-23T23:17:42.569Z,8.92
2023-04-23T23:22:44.961Z,8.71
2023-04-23T23:27:47.297Z,8.01
2023-04-23T23:32:49.714Z,8.03
2023-04-23T23:37:52.139Z,8.32
2023-04-23T23:42:54.468Z,8.66
2023-04-23T23:47:56.960Z,7.47
2023-04-23T23:52:59.285Z,7.89
2023-04-23T23:58:02.014Z,7.85
